sensor_id;sensor_type;location;lat;lon;timestamp;temperature;humidity
11387;DHT22;5748;53.102;8.456;2023-04-25T00:01:03;11.70;61.70
11387;DHT22;5748;53.102;8.456;2023-04-25T00:03:31;11.70;61.90
11387;DHT22;5748;53.102;8.456;2023-04-25T00:05:59;11.70;61.80
11387;DHT22;5748;53.102;8.456;2023-04-25T00:08:28;11.70;61.70
11387;DHT22;5748;53.102;8.456;2023-04-25T00:10:56;11.70;61.80
11387;DHT22;5748;53.102;8.456;2023-04-25T00:13:23;11.70;61.70
11387;DHT22;5748;53.102;8.456;2023-04-25T00:15:51;11.60;61.70
11387;DHT22;5748;53.102;8.456;2023-04-25T00:18:24;11.60;61.70
11387;DHT22;5748;53.102;8.456;2023-04-25T00:20:54;11.70;62.10
11387;DHT22;5748;53.102;8.456;2023-04-25T00:23:22;11.60;62.00
11387;DHT22;5748;53.102;8.456;2023-04-25T00:25:50;11.50;61.90
11387;DHT22;5748;53.102;8.456;2023-04-25T00:28:29;11.50;61.80
11387;DHT22;5748;53.102;8.456;2023-04-25T00:30:56;11.40;62.00
11387;DHT22;5748;53.102;8.456;2023-04-25T00:33:23;11.50;61.70
11387;DHT22;5748;53.102;8.456;2023-04-25T00:35:50;11.40;61.50
11387;DHT22;5748;53.102;8.456;2023-04-25T00:38:17;10.90;61.00
11387;DHT22;5748;53.102;8.456;2023-04-25T00:40:45;11.40;61.70
11387;DHT22;5748;53.102;8.456;2023-04-25T00:43:12;11.40;61.50
11387;DHT22;5748;53.102;8.456;2023-04-25T00:45:40;11.30;61.20
11387;DHT22;5748;53.102;8.456;2023-04-25T00:48:07;11.30;61.30
11387;DHT22;5748;53.102;8.456;2023-04-25T00:50:35;11.30;61.50
11387;DHT22;5748;53.102;8.456;2023-04-25T00:53:03;11.30;61.50
11387;DHT22;5748;53.102;8.456;2023-04-25T00:55:30;11.30;61.50
11387;DHT22;5748;53.102;8.456;2023-04-25T00:57:59;11.30;61.50
11387;DHT22;5748;53.102;8.456;2023-04-25T01:00:26;11.30;61.30
11387;DHT22;5748;53.102;8.456;2023-04-25T01:02:53;11.20;61.20
11387;DHT22;5748;53.102;8.456;2023-04-25T01:05:27;11.20;61.10
11387;DHT22;5748;53.102;8.456;2023-04-25T01:07:54;11.20;61.10
11387;DHT22;5748;53.102;8.456;2023-04-25T01:10:21;11.20;60.90
11387;DHT22;5748;53.102;8.456;2023-04-25T01:12:48;11.10;60.80
11387;DHT22;5748;53.102;8.456;2023-04-25T01:15:17;11.20;60.90
11387;DHT22;5748;53.102;8.456;2023-04-25T01:17:44;11.10;60.80
11387;DHT22;5748;53.102;8.456;2023-04-25T01:20:12;11.10;60.70
11387;DHT22;5748;53.102;8.456;2023-04-25T01:22:42;11.10;60.80
11387;DHT22;5748;53.102;8.456;2023-04-25T01:25:09;11.10;60.70
11387;DHT22;5748;53.102;8.456;2023-04-25T01:27:37;11.20;60.80
11387;DHT22;5748;53.102;8.456;2023-04-25T01:30:05;11.00;60.70
11387;DHT22;5748;53.102;8.456;2023-04-25T01:32:34;11.00;60.70
11387;DHT22;5748;53.102;8.456;2023-04-25T01:38:25;11.00;61.00
11387;DHT22;5748;53.102;8.456;2023-04-25T01:40:53;11.00;60.60
11387;DHT22;5748;53.102;8.456;2023-04-25T01:43:32;10.90;60.50
11387;DHT22;5748;53.102;8.456;2023-04-25T01:45:59;10.90;60.60
11387;DHT22;5748;53.102;8.456;2023-04-25T01:48:26;10.90;60.40
11387;DHT22;5748;53.102;8.456;2023-04-25T01:50:53;10.90;60.30
11387;DHT22;5748;53.102;8.456;2023-04-25T01:53:33;10.80;60.20
11387;DHT22;5748;53.102;8.456;2023-04-25T01:56:00;10.80;60.30
11387;DHT22;5748;53.102;8.456;2023-04-25T01:58:27;11.10;60.50
11387;DHT22;5748;53.102;8.456;2023-04-25T02:00:54;10.80;60.20
11387;DHT22;5748;53.102;8.456;2023-04-25T02:03:21;10.80;60.20
11387;DHT22;5748;53.102;8.456;2023-04-25T02:05:48;10.80;60.10
11387;DHT22;5748;53.102;8.456;2023-04-25T02:08:16;10.80;60.20
11387;DHT22;5748;53.102;8.456;2023-04-25T02:10:49;10.80;60.20
11387;DHT22;5748;53.102;8.456;2023-04-25T02:13:16;10.70;60.00
11387;DHT22;5748;53.102;8.456;2023-04-25T02:15:44;10.70;59.90
11387;DHT22;5748;53.102;8.456;2023-04-25T02:18:11;10.70;60.00
11387;DHT22;5748;53.102;8.456;2023-04-25T02:20:38;10.70;59.90
11387;DHT22;5748;53.102;8.456;2023-04-25T02:23:05;10.70;59.90
11387;DHT22;5748;53.102;8.456;2023-04-25T02:25:41;10.60;59.90
11387;DHT22;5748;53.102;8.456;2023-04-25T02:28:10;10.60;60.00
11387;DHT22;5748;53.102;8.456;2023-04-25T02:30:37;10.60;60.00
11387;DHT22;5748;53.102;8.456;2023-04-25T02:33:04;10.60;60.00
11387;DHT22;5748;53.102;8.456;2023-04-25T02:35:31;10.60;60.00
11387;DHT22;5748;53.102;8.456;2023-04-25T02:37:58;10.60;60.00
11387;DHT22;5748;53.102;8.456;2023-04-25T02:40:25;10.60;60.00
11387;DHT22;5748;53.102;8.456;2023-04-25T02:42:52;10.60;60.10
11387;DHT22;5748;53.102;8.456;2023-04-25T02:45:21;10.50;59.90
11387;DHT22;5748;53.102;8.456;2023-04-25T02:47:48;10.50;59.90
11387;DHT22;5748;53.102;8.456;2023-04-25T02:50:15;10.50;59.90
11387;DHT22;5748;53.102;8.456;2023-04-25T02:52:44;10.50;59.90
11387;DHT22;5748;53.102;8.456;2023-04-25T02:55:11;11.40;60.90
11387;DHT22;5748;53.102;8.456;2023-04-25T02:57:38;10.60;60.10
11387;DHT22;5748;53.102;8.456;2023-04-25T03:00:07;10.50;59.90
11387;DHT22;5748;53.102;8.456;2023-04-25T03:02:35;10.50;60.00
11387;DHT22;5748;53.102;8.456;2023-04-25T03:05:03;10.50;59.90
11387;DHT22;5748;53.102;8.456;2023-04-25T03:07:30;10.50;60.60
11387;DHT22;5748;53.102;8.456;2023-04-25T03:09:57;10.50;59.80
11387;DHT22;5748;53.102;8.456;2023-04-25T03:12:24;10.40;59.70
11387;DHT22;5748;53.102;8.456;2023-04-25T03:14:51;10.50;59.80
11387;DHT22;5748;53.102;8.456;2023-04-25T03:17:18;10.50;59.70
11387;DHT22;5748;53.102;8.456;2023-04-25T03:19:46;10.40;59.60
11387;DHT22;5748;53.102;8.456;2023-04-25T03:22:13;11.70;60.80
11387;DHT22;5748;53.102;8.456;2023-04-25T03:24:40;10.40;59.60
11387;DHT22;5748;53.102;8.456;2023-04-25T03:27:08;10.40;59.50
11387;DHT22;5748;53.102;8.456;2023-04-25T03:29:35;10.40;59.80
11387;DHT22;5748;53.102;8.456;2023-04-25T03:32:02;10.30;59.20
11387;DHT22;5748;53.102;8.456;2023-04-25T03:34:29;10.30;59.20
11387;DHT22;5748;53.102;8.456;2023-04-25T03:36:57;10.30;59.10
11387;DHT22;5748;53.102;8.456;2023-04-25T03:39:25;12.50;61.70
11387;DHT22;5748;53.102;8.456;2023-04-25T03:41:52;10.20;58.90
11387;DHT22;5748;53.102;8.456;2023-04-25T03:44:19;10.10;58.80
11387;DHT22;5748;53.102;8.456;2023-04-25T03:46:46;10.10;58.80
11387;DHT22;5748;53.102;8.456;2023-04-25T03:49:13;10.00;58.70
11387;DHT22;5748;53.102;8.456;2023-04-25T03:51:40;9.90;59.80
11387;DHT22;5748;53.102;8.456;2023-04-25T03:54:09;11.10;60.10
11387;DHT22;5748;53.102;8.456;2023-04-25T03:56:35;9.80;59.60
11387;DHT22;5748;53.102;8.456;2023-04-25T03:59:02;11.40;59.90
11387;DHT22;5748;53.102;8.456;2023-04-25T04:01:29;9.80;59.60
11387;DHT22;5748;53.102;8.456;2023-04-25T04:03:57;9.70;59.60
11387;DHT22;5748;53.102;8.456;2023-04-25T04:06:24;9.60;59.40
11387;DHT22;5748;53.102;8.456;2023-04-25T04:08:51;9.60;59.50
11387;DHT22;5748;53.102;8.456;2023-04-25T04:11:25;9.60;59.60
11387;DHT22;5748;53.102;8.456;2023-04-25T04:13:52;9.50;59.70
11387;DHT22;5748;53.102;8.456;2023-04-25T04:16:19;9.50;59.60
11387;DHT22;5748;53.102;8.456;2023-04-25T04:18:48;9.40;59.80
11387;DHT22;5748;53.102;8.456;2023-04-25T04:21:15;9.30;60.00
11387;DHT22;5748;53.102;8.456;2023-04-25T04:23:42;9.30;60.00
11387;DHT22;5748;53.102;8.456;2023-04-25T04:26:09;9.30;60.00
11387;DHT22;5748;53.102;8.456;2023-04-25T04:28:38;9.30;60.30
11387;DHT22;5748;53.102;8.456;2023-04-25T04:31:05;9.30;60.30
11387;DHT22;5748;53.102;8.456;2023-04-25T04:33:33;9.30;60.40
11387;DHT22;5748;53.102;8.456;2023-04-25T04:36:00;9.30;60.50
11387;DHT22;5748;53.102;8.456;2023-04-25T04:38:28;9.30;60.60
11387;DHT22;5748;53.102;8.456;2023-04-25T04:40:55;9.30;60.60
11387;DHT22;5748;53.102;8.456;2023-04-25T04:43:23;9.40;60.60
11387;DHT22;5748;53.102;8.456;2023-04-25T04:46:00;9.40;60.50
11387;DHT22;5748;53.102;8.456;2023-04-25T04:48:28;9.40;60.70
11387;DHT22;5748;53.102;8.456;2023-04-25T04:50:58;9.50;60.70
11387;DHT22;5748;53.102;8.456;2023-04-25T04:53:25;9.50;60.60
11387;DHT22;5748;53.102;8.456;2023-04-25T04:55:52;9.60;60.60
11387;DHT22;5748;53.102;8.456;2023-04-25T04:58:19;9.60;60.60
11387;DHT22;5748;53.102;8.456;2023-04-25T05:00:46;9.50;60.60
11387;DHT22;5748;53.102;8.456;2023-04-25T05:03:14;9.60;60.70
11387;DHT22;5748;53.102;8.456;2023-04-25T05:05:41;9.70;60.70
11387;DHT22;5748;53.102;8.456;2023-04-25T05:08:12;9.70;60.60
11387;DHT22;5748;53.102;8.456;2023-04-25T05:10:39;9.70;60.50
11387;DHT22;5748;53.102;8.456;2023-04-25T05:13:07;9.70;60.40
11387;DHT22;5748;53.102;8.456;2023-04-25T05:15:34;9.80;60.40
11387;DHT22;5748;53.102;8.456;2023-04-25T05:18:01;9.80;60.20
11387;DHT22;5748;53.102;8.456;2023-04-25T05:20:30;9.90;60.20
11387;DHT22;5748;53.102;8.456;2023-04-25T05:22:57;9.80;59.90
11387;DHT22;5748;53.102;8.456;2023-04-25T05:25:24;9.80;59.90
11387;DHT22;5748;53.102;8.456;2023-04-25T05:27:58;9.80;59.90
11387;DHT22;5748;53.102;8.456;2023-04-25T05:30:25;9.70;59.70
11387;DHT22;5748;53.102;8.456;2023-04-25T05:32:54;9.70;59.60
11387;DHT22;5748;53.102;8.456;2023-04-25T05:35:22;9.70;59.80
11387;DHT22;5748;53.102;8.456;2023-04-25T05:37:50;9.70;59.90
11387;DHT22;5748;53.102;8.456;2023-04-25T05:40:17;9.70;60.00
11387;DHT22;5748;53.102;8.456;2023-04-25T05:42:44;9.70;60.00
11387;DHT22;5748;53.102;8.456;2023-04-25T05:45:12;9.70;60.00
11387;DHT22;5748;53.102;8.456;2023-04-25T05:47:39;9.80;60.10
11387;DHT22;5748;53.102;8.456;2023-04-25T05:50:07;9.80;60.10
11387;DHT22;5748;53.102;8.456;2023-04-25T05:52:35;9.90;60.20
11387;DHT22;5748;53.102;8.456;2023-04-25T05:55:03;9.90;60.10
11387;DHT22;5748;53.102;8.456;2023-04-25T05:57:31;10.00;59.40
11387;DHT22;5748;53.102;8.456;2023-04-25T05:59:58;10.00;59.20
11387;DHT22;5748;53.102;8.456;2023-04-25T06:02:25;10.10;59.20
11387;DHT22;5748;53.102;8.456;2023-04-25T06:04:53;10.10;59.20
11387;DHT22;5748;53.102;8.456;2023-04-25T06:07:20;10.20;59.30
11387;DHT22;5748;53.102;8.456;2023-04-25T06:09:47;10.20;59.40
11387;DHT22;5748;53.102;8.456;2023-04-25T06:12:15;10.30;59.60
11387;DHT22;5748;53.102;8.456;2023-04-25T06:14:43;10.40;59.80
11387;DHT22;5748;53.102;8.456;2023-04-25T06:17:10;10.60;60.30
11387;DHT22;5748;53.102;8.456;2023-04-25T06:19:37;10.70;60.50
11387;DHT22;5748;53.102;8.456;2023-04-25T06:22:04;10.90;60.60
11387;DHT22;5748;53.102;8.456;2023-04-25T06:24:32;11.10;60.40
11387;DHT22;5748;53.102;8.456;2023-04-25T06:27:00;11.40;60.50
11387;DHT22;5748;53.102;8.456;2023-04-25T06:29:30;11.50;59.70
11387;DHT22;5748;53.102;8.456;2023-04-25T06:31:57;11.60;59.40
11387;DHT22;5748;53.102;8.456;2023-04-25T06:34:24;11.80;59.10
11387;DHT22;5748;53.102;8.456;2023-04-25T06:36:51;11.90;59.10
11387;DHT22;5748;53.102;8.456;2023-04-25T06:39:18;12.00;58.40
11387;DHT22;5748;53.102;8.456;2023-04-25T06:41:45;12.00;57.70
11387;DHT22;5748;53.102;8.456;2023-04-25T06:44:13;12.00;58.20
11387;DHT22;5748;53.102;8.456;2023-04-25T06:46:42;12.10;57.60
11387;DHT22;5748;53.102;8.456;2023-04-25T06:49:09;12.10;56.50
11387;DHT22;5748;53.102;8.456;2023-04-25T06:51:36;12.00;57.00
11387;DHT22;5748;53.102;8.456;2023-04-25T06:54:03;12.10;57.60
11387;DHT22;5748;53.102;8.456;2023-04-25T06:56:30;12.10;57.80
11387;DHT22;5748;53.102;8.456;2023-04-25T06:58:57;12.10;57.30
11387;DHT22;5748;53.102;8.456;2023-04-25T07:01:25;12.20;57.70
11387;DHT22;5748;53.102;8.456;2023-04-25T07:03:55;12.20;57.70
11387;DHT22;5748;53.102;8.456;2023-04-25T07:06:22;12.20;57.20
11387;DHT22;5748;53.102;8.456;2023-04-25T07:08:49;12.30;57.80
11387;DHT22;5748;53.102;8.456;2023-04-25T07:11:16;12.40;57.20
11387;DHT22;5748;53.102;8.456;2023-04-25T07:13:42;12.50;57.30
11387;DHT22;5748;53.102;8.456;2023-04-25T07:16:10;12.60;57.50
11387;DHT22;5748;53.102;8.456;2023-04-25T07:18:37;12.70;57.60
11387;DHT22;5748;53.102;8.456;2023-04-25T07:21:05;12.80;57.60
11387;DHT22;5748;53.102;8.456;2023-04-25T07:23:32;12.90;57.60
11387;DHT22;5748;53.102;8.456;2023-04-25T07:26:06;13.10;58.80
11387;DHT22;5748;53.102;8.456;2023-04-25T07:28:34;13.30;57.80
11387;DHT22;5748;53.102;8.456;2023-04-25T07:31:01;13.40;58.80
11387;DHT22;5748;53.102;8.456;2023-04-25T07:33:29;13.60;58.80
11387;DHT22;5748;53.102;8.456;2023-04-25T07:35:56;13.70;57.90
11387;DHT22;5748;53.102;8.456;2023-04-25T07:38:25;13.90;57.90
11387;DHT22;5748;53.102;8.456;2023-04-25T07:40:53;14.10;58.00
11387;DHT22;5748;53.102;8.456;2023-04-25T07:43:20;14.30;57.50
11387;DHT22;5748;53.102;8.456;2023-04-25T07:45:47;14.40;55.40
11387;DHT22;5748;53.102;8.456;2023-04-25T07:48:16;14.60;57.10
11387;DHT22;5748;53.102;8.456;2023-04-25T07:50:44;14.70;57.00
11387;DHT22;5748;53.102;8.456;2023-04-25T07:53:11;14.70;56.40
11387;DHT22;5748;53.102;8.456;2023-04-25T07:55:40;14.70;55.40
11387;DHT22;5748;53.102;8.456;2023-04-25T07:58:07;14.60;55.00
11387;DHT22;5748;53.102;8.456;2023-04-25T08:00:34;14.60;54.40
11387;DHT22;5748;53.102;8.456;2023-04-25T08:03:01;14.50;54.10
11387;DHT22;5748;53.102;8.456;2023-04-25T08:05:28;14.40;51.80
11387;DHT22;5748;53.102;8.456;2023-04-25T08:07:57;14.30;52.20
11387;DHT22;5748;53.102;8.456;2023-04-25T08:10:24;14.20;53.00
11387;DHT22;5748;53.102;8.456;2023-04-25T08:12:53;14.00;52.30
11387;DHT22;5748;53.102;8.456;2023-04-25T08:15:20;13.90;52.10
11387;DHT22;5748;53.102;8.456;2023-04-25T08:17:47;13.70;51.40
11387;DHT22;5748;53.102;8.456;2023-04-25T08:20:14;13.40;52.50
11387;DHT22;5748;53.102;8.456;2023-04-25T08:22:42;13.40;53.10
11387;DHT22;5748;53.102;8.456;2023-04-25T08:25:09;13.30;53.10
11387;DHT22;5748;53.102;8.456;2023-04-25T08:27:36;15.60;55.40
11387;DHT22;5748;53.102;8.456;2023-04-25T08:30:07;13.20;54.10
11387;DHT22;5748;53.102;8.456;2023-04-25T08:32:35;13.10;54.80
11387;DHT22;5748;53.102;8.456;2023-04-25T08:35:03;13.10;54.00
11387;DHT22;5748;53.102;8.456;2023-04-25T08:37:31;13.00;52.70
11387;DHT22;5748;53.102;8.456;2023-04-25T08:39:58;13.00;53.40
11387;DHT22;5748;53.102;8.456;2023-04-25T08:42:27;13.10;53.70
11387;DHT22;5748;53.102;8.456;2023-04-25T08:44:54;13.10;55.80
11387;DHT22;5748;53.102;8.456;2023-04-25T08:47:24;13.40;57.60
11387;DHT22;5748;53.102;8.456;2023-04-25T08:49:53;13.70;57.40
11387;DHT22;5748;53.102;8.456;2023-04-25T08:52:30;14.10;57.10
11387;DHT22;5748;53.102;8.456;2023-04-25T08:55:07;14.50;55.50
11387;DHT22;5748;53.102;8.456;2023-04-25T08:57:37;14.80;57.10
11387;DHT22;5748;53.102;8.456;2023-04-25T09:00:06;15.20;56.30
11387;DHT22;5748;53.102;8.456;2023-04-25T09:02:36;15.40;56.20
11387;DHT22;5748;53.102;8.456;2023-04-25T09:05:03;15.60;54.30
11387;DHT22;5748;53.102;8.456;2023-04-25T09:07:32;15.60;53.40
11387;DHT22;5748;53.102;8.456;2023-04-25T09:09:59;15.70;52.60
11387;DHT22;5748;53.102;8.456;2023-04-25T09:12:32;15.60;52.90
11387;DHT22;5748;53.102;8.456;2023-04-25T09:15:05;15.50;53.00
11387;DHT22;5748;53.102;8.456;2023-04-25T09:17:33;14.80;52.10
11387;DHT22;5748;53.102;8.456;2023-04-25T09:20:09;15.60;53.30
11387;DHT22;5748;53.102;8.456;2023-04-25T09:22:40;15.20;53.90
11387;DHT22;5748;53.102;8.456;2023-04-25T09:25:09;15.30;55.60
11387;DHT22;5748;53.102;8.456;2023-04-25T09:27:49;15.40;55.60
11387;DHT22;5748;53.102;8.456;2023-04-25T09:30:18;15.80;56.90
11387;DHT22;5748;53.102;8.456;2023-04-25T09:32:45;16.30;57.70
11387;DHT22;5748;53.102;8.456;2023-04-25T09:35:23;16.90;59.80
11387;DHT22;5748;53.102;8.456;2023-04-25T09:37:52;17.60;58.20
11387;DHT22;5748;53.102;8.456;2023-04-25T09:40:19;18.20;57.70
11387;DHT22;5748;53.102;8.456;2023-04-25T09:42:46;18.80;57.90
11387;DHT22;5748;53.102;8.456;2023-04-25T09:45:13;19.20;55.80
11387;DHT22;5748;53.102;8.456;2023-04-25T09:47:42;19.60;55.40
11387;DHT22;5748;53.102;8.456;2023-04-25T09:50:16;19.90;53.30
11387;DHT22;5748;53.102;8.456;2023-04-25T09:52:44;20.00;51.70
11387;DHT22;5748;53.102;8.456;2023-04-25T09:55:13;20.00;52.50
11387;DHT22;5748;53.102;8.456;2023-04-25T09:57:52;20.00;51.40
11387;DHT22;5748;53.102;8.456;2023-04-25T10:00:21;19.70;48.50
11387;DHT22;5748;53.102;8.456;2023-04-25T10:02:48;19.40;47.70
11387;DHT22;5748;53.102;8.456;2023-04-25T10:05:19;19.00;48.40
11387;DHT22;5748;53.102;8.456;2023-04-25T10:07:50;18.50;47.40
11387;DHT22;5748;53.102;8.456;2023-04-25T10:10:17;18.00;47.00
11387;DHT22;5748;53.102;8.456;2023-04-25T10:12:45;17.60;48.10
11387;DHT22;5748;53.102;8.456;2023-04-25T10:15:13;17.10;48.60
11387;DHT22;5748;53.102;8.456;2023-04-25T10:17:41;16.80;48.30
11387;DHT22;5748;53.102;8.456;2023-04-25T10:20:11;16.30;48.10
11387;DHT22;5748;53.102;8.456;2023-04-25T10:22:44;16.00;49.70
11387;DHT22;5748;53.102;8.456;2023-04-25T10:25:15;15.70;49.20
11387;DHT22;5748;53.102;8.456;2023-04-25T10:27:43;15.50;49.80
11387;DHT22;5748;53.102;8.456;2023-04-25T10:30:14;15.40;49.90
11387;DHT22;5748;53.102;8.456;2023-04-25T10:32:42;15.30;49.90
11387;DHT22;5748;53.102;8.456;2023-04-25T10:35:14;15.40;50.10
11387;DHT22;5748;53.102;8.456;2023-04-25T10:38:02;15.30;50.40
11387;DHT22;5748;53.102;8.456;2023-04-25T10:40:30;15.50;50.50
11387;DHT22;5748;53.102;8.456;2023-04-25T10:46:15;15.70;49.20
11387;DHT22;5748;53.102;8.456;2023-04-25T10:49:01;16.00;51.60
11387;DHT22;5748;53.102;8.456;2023-04-25T10:51:29;16.30;51.80
11387;DHT22;5748;53.102;8.456;2023-04-25T10:54:00;16.70;53.60
11387;DHT22;5748;53.102;8.456;2023-04-25T10:56:29;17.30;52.20
11387;DHT22;5748;53.102;8.456;2023-04-25T10:59:05;17.80;54.00
11387;DHT22;5748;53.102;8.456;2023-04-25T11:01:37;18.60;53.60
11387;DHT22;5748;53.102;8.456;2023-04-25T11:04:05;19.00;51.90
11387;DHT22;5748;53.102;8.456;2023-04-25T11:06:44;19.60;54.40
11387;DHT22;5748;53.102;8.456;2023-04-25T11:09:18;20.30;52.60
11387;DHT22;5748;53.102;8.456;2023-04-25T11:11:54;20.70;50.50
11387;DHT22;5748;53.102;8.456;2023-04-25T11:14:23;20.90;47.60
11387;DHT22;5748;53.102;8.456;2023-04-25T11:16:53;20.90;48.00
11387;DHT22;5748;53.102;8.456;2023-04-25T11:19:21;20.70;48.30
11387;DHT22;5748;53.102;8.456;2023-04-25T11:21:48;20.50;48.00
11387;DHT22;5748;53.102;8.456;2023-04-25T11:24:17;20.30;47.60
11387;DHT22;5748;53.102;8.456;2023-04-25T11:26:47;20.10;48.60
11387;DHT22;5748;53.102;8.456;2023-04-25T11:29:14;19.90;48.10
11387;DHT22;5748;53.102;8.456;2023-04-25T11:31:43;19.70;48.20
11387;DHT22;5748;53.102;8.456;2023-04-25T11:34:10;19.50;47.80
11387;DHT22;5748;53.102;8.456;2023-04-25T11:36:38;19.30;47.20
11387;DHT22;5748;53.102;8.456;2023-04-25T11:39:06;19.10;47.80
11387;DHT22;5748;53.102;8.456;2023-04-25T11:41:37;19.10;49.70
11387;DHT22;5748;53.102;8.456;2023-04-25T11:44:06;19.40;51.70
11387;DHT22;5748;53.102;8.456;2023-04-25T11:46:34;19.90;53.50
11387;DHT22;5748;53.102;8.456;2023-04-25T11:49:01;20.70;53.90
11387;DHT22;5748;53.102;8.456;2023-04-25T11:51:29;21.40;53.00
11387;DHT22;5748;53.102;8.456;2023-04-25T11:53:57;21.90;49.80
11387;DHT22;5748;53.102;8.456;2023-04-25T11:56:24;22.10;48.80
11387;DHT22;5748;53.102;8.456;2023-04-25T11:58:56;22.10;47.50
11387;DHT22;5748;53.102;8.456;2023-04-25T12:01:28;21.90;44.50
11387;DHT22;5748;53.102;8.456;2023-04-25T12:03:55;21.50;44.60
11387;DHT22;5748;53.102;8.456;2023-04-25T12:06:31;21.10;44.40
11387;DHT22;5748;53.102;8.456;2023-04-25T12:09:02;20.50;44.20
11387;DHT22;5748;53.102;8.456;2023-04-25T12:11:30;20.30;46.80
11387;DHT22;5748;53.102;8.456;2023-04-25T12:14:03;20.10;48.20
11387;DHT22;5748;53.102;8.456;2023-04-25T12:16:40;20.30;48.70
11387;DHT22;5748;53.102;8.456;2023-04-25T12:19:08;20.80;50.50
11387;DHT22;5748;53.102;8.456;2023-04-25T12:21:36;21.30;51.60
11387;DHT22;5748;53.102;8.456;2023-04-25T12:24:15;21.90;52.50
11387;DHT22;5748;53.102;8.456;2023-04-25T12:26:48;22.80;51.20
11387;DHT22;5748;53.102;8.456;2023-04-25T12:29:21;23.30;49.80
11387;DHT22;5748;53.102;8.456;2023-04-25T12:31:51;23.70;47.90
11387;DHT22;5748;53.102;8.456;2023-04-25T12:34:21;23.80;47.20
11387;DHT22;5748;53.102;8.456;2023-04-25T12:36:49;23.80;45.30
11387;DHT22;5748;53.102;8.456;2023-04-25T12:39:17;23.50;45.00
11387;DHT22;5748;53.102;8.456;2023-04-25T12:41:46;23.20;43.80
11387;DHT22;5748;53.102;8.456;2023-04-25T12:44:13;22.90;44.40
11387;DHT22;5748;53.102;8.456;2023-04-25T12:46:42;22.60;42.80
11387;DHT22;5748;53.102;8.456;2023-04-25T12:49:09;22.10;42.20
11387;DHT22;5748;53.102;8.456;2023-04-25T12:51:38;21.70;43.70
11387;DHT22;5748;53.102;8.456;2023-04-25T12:54:09;22.40;44.90
11387;DHT22;5748;53.102;8.456;2023-04-25T12:56:37;21.30;46.00
11387;DHT22;5748;53.102;8.456;2023-04-25T12:59:06;21.40;46.90
11387;DHT22;5748;53.102;8.456;2023-04-25T13:01:34;21.70;46.50
11387;DHT22;5748;53.102;8.456;2023-04-25T13:04:02;22.10;46.20
11387;DHT22;5748;53.102;8.456;2023-04-25T13:06:30;22.50;45.80
11387;DHT22;5748;53.102;8.456;2023-04-25T13:08:57;22.80;45.40
11387;DHT22;5748;53.102;8.456;2023-04-25T13:11:24;23.10;44.10
11387;DHT22;5748;53.102;8.456;2023-04-25T13:13:51;23.50;44.50
11387;DHT22;5748;53.102;8.456;2023-04-25T13:16:18;23.60;41.80
11387;DHT22;5748;53.102;8.456;2023-04-25T13:18:47;23.70;43.00
11387;DHT22;5748;53.102;8.456;2023-04-25T13:21:17;23.80;42.50
11387;DHT22;5748;53.102;8.456;2023-04-25T13:23:44;23.80;42.40
11387;DHT22;5748;53.102;8.456;2023-04-25T13:26:12;24.00;43.40
11387;DHT22;5748;53.102;8.456;2023-04-25T13:28:39;24.30;43.40
11387;DHT22;5748;53.102;8.456;2023-04-25T13:31:06;24.30;42.50
11387;DHT22;5748;53.102;8.456;2023-04-25T13:33:33;24.30;41.40
11387;DHT22;5748;53.102;8.456;2023-04-25T13:36:00;24.30;39.20
11387;DHT22;5748;53.102;8.456;2023-04-25T13:38:30;24.20;39.30
11387;DHT22;5748;53.102;8.456;2023-04-25T13:40:57;24.10;39.50
11387;DHT22;5748;53.102;8.456;2023-04-25T13:43:24;24.00;39.30
11387;DHT22;5748;53.102;8.456;2023-04-25T13:45:51;23.90;37.80
11387;DHT22;5748;53.102;8.456;2023-04-25T13:48:18;23.70;37.90
11387;DHT22;5748;53.102;8.456;2023-04-25T13:50:46;23.50;39.30
11387;DHT22;5748;53.102;8.456;2023-04-25T13:53:13;23.20;39.60
11387;DHT22;5748;53.102;8.456;2023-04-25T13:55:41;22.90;38.00
11387;DHT22;5748;53.102;8.456;2023-04-25T13:58:08;22.60;37.80
11387;DHT22;5748;53.102;8.456;2023-04-25T14:00:36;22.30;36.80
11387;DHT22;5748;53.102;8.456;2023-04-25T14:03:05;21.90;37.70
11387;DHT22;5748;53.102;8.456;2023-04-25T14:05:34;21.60;38.20
11387;DHT22;5748;53.102;8.456;2023-04-25T14:08:05;21.20;38.60
11387;DHT22;5748;53.102;8.456;2023-04-25T14:10:33;20.90;38.70
11387;DHT22;5748;53.102;8.456;2023-04-25T14:13:03;20.50;38.60
11387;DHT22;5748;53.102;8.456;2023-04-25T14:15:31;20.10;38.50
11387;DHT22;5748;53.102;8.456;2023-04-25T14:17:59;19.60;39.10
11387;DHT22;5748;53.102;8.456;2023-04-25T14:20:29;19.20;39.00
11387;DHT22;5748;53.102;8.456;2023-04-25T14:22:58;18.80;39.60
11387;DHT22;5748;53.102;8.456;2023-04-25T14:25:25;18.40;40.10
11387;DHT22;5748;53.102;8.456;2023-04-25T14:27:53;18.10;40.70
11387;DHT22;5748;53.102;8.456;2023-04-25T14:30:22;17.80;41.20
11387;DHT22;5748;53.102;8.456;2023-04-25T14:32:49;17.70;41.50
11387;DHT22;5748;53.102;8.456;2023-04-25T14:35:17;17.50;41.60
11387;DHT22;5748;53.102;8.456;2023-04-25T14:37:45;17.40;42.00
11387;DHT22;5748;53.102;8.456;2023-04-25T14:40:13;17.30;41.60
11387;DHT22;5748;53.102;8.456;2023-04-25T14:42:41;17.20;41.80
11387;DHT22;5748;53.102;8.456;2023-04-25T14:45:09;17.10;41.90
11387;DHT22;5748;53.102;8.456;2023-04-25T14:47:37;17.00;42.80
11387;DHT22;5748;53.102;8.456;2023-04-25T14:50:07;16.80;42.50
11387;DHT22;5748;53.102;8.456;2023-04-25T14:52:36;16.80;42.70
11387;DHT22;5748;53.102;8.456;2023-04-25T14:55:03;16.60;42.60
11387;DHT22;5748;53.102;8.456;2023-04-25T14:57:54;16.50;42.90
11387;DHT22;5748;53.102;8.456;2023-04-25T15:00:21;16.40;43.60
11387;DHT22;5748;53.102;8.456;2023-04-25T15:02:53;16.40;44.40
11387;DHT22;5748;53.102;8.456;2023-04-25T15:05:20;16.50;44.80
11387;DHT22;5748;53.102;8.456;2023-04-25T15:07:47;16.50;44.40
11387;DHT22;5748;53.102;8.456;2023-04-25T15:10:17;16.60;43.90
11387;DHT22;5748;53.102;8.456;2023-04-25T15:12:45;16.60;43.60
11387;DHT22;5748;53.102;8.456;2023-04-25T15:15:12;16.60;43.40
11387;DHT22;5748;53.102;8.456;2023-04-25T15:17:41;16.40;42.90
11387;DHT22;5748;53.102;8.456;2023-04-25T15:20:12;16.30;43.30
11387;DHT22;5748;53.102;8.456;2023-04-25T15:22:41;16.20;43.80
11387;DHT22;5748;53.102;8.456;2023-04-25T15:25:09;16.10;44.00
11387;DHT22;5748;53.102;8.456;2023-04-25T15:27:38;16.00;43.30
11387;DHT22;5748;53.102;8.456;2023-04-25T15:30:10;16.00;43.30
11387;DHT22;5748;53.102;8.456;2023-04-25T15:32:39;15.90;43.20
11387;DHT22;5748;53.102;8.456;2023-04-25T15:35:06;15.70;42.80
11387;DHT22;5748;53.102;8.456;2023-04-25T15:37:36;15.70;43.00
11387;DHT22;5748;53.102;8.456;2023-04-25T15:40:05;15.70;43.30
11387;DHT22;5748;53.102;8.456;2023-04-25T15:42:36;15.50;43.40
11387;DHT22;5748;53.102;8.456;2023-04-25T15:45:05;15.30;43.40
11387;DHT22;5748;53.102;8.456;2023-04-25T15:47:35;15.30;43.80
11387;DHT22;5748;53.102;8.456;2023-04-25T15:50:03;15.10;43.80
11387;DHT22;5748;53.102;8.456;2023-04-25T15:52:36;15.10;43.90
11387;DHT22;5748;53.102;8.456;2023-04-25T15:55:04;15.00;44.00
11387;DHT22;5748;53.102;8.456;2023-04-25T15:57:32;14.90;43.80
11387;DHT22;5748;53.102;8.456;2023-04-25T16:00:04;14.90;44.50
11387;DHT22;5748;53.102;8.456;2023-04-25T16:02:36;14.80;44.10